sensor_id;sensor_type;location;lat;lon;timestamp;P1;durP1;ratioP1;P2;durP2;ratioP2
82742;SDS011;72483;50.656;7.216;2023-08-30T00:02:17;4.32;;;2.20;;
82742;SDS011;72483;50.656;7.216;2023-08-30T00:04:43;4.70;;;2.22;;
82742;SDS011;72483;50.656;7.216;2023-08-30T00:07:10;4.15;;;2.08;;
82742;SDS011;72483;50.656;7.216;2023-08-30T00:09:36;5.05;;;2.30;;
82742;SDS011;72483;50.656;7.216;2023-08-30T00:12:03;4.00;;;1.98;;
82742;SDS011;72483;50.656;7.216;2023-08-30T00:14:30;4.63;;;2.22;;
82742;SDS011;72483;50.656;7.216;2023-08-30T00:16:59;4.50;;;2.20;;
82742;SDS011;72483;50.656;7.216;2023-08-30T00:19:25;4.40;;;2.15;;
82742;SDS011;72483;50.656;7.216;2023-08-30T00:21:52;4.55;;;1.92;;
82742;SDS011;72483;50.656;7.216;2023-08-30T00:24:18;4.97;;;2.22;;
82742;SDS011;72483;50.656;7.216;2023-08-30T00:26:44;4.72;;;2.30;;
82742;SDS011;72483;50.656;7.216;2023-08-30T00:29:11;4.38;;;2.17;;
82742;SDS011;72483;50.656;7.216;2023-08-30T00:31:37;4.28;;;2.10;;
82742;SDS011;72483;50.656;7.216;2023-08-30T00:34:05;4.63;;;2.03;;
82742;SDS011;72483;50.656;7.216;2023-08-30T00:36:32;4.70;;;1.90;;
82742;SDS011;72483;50.656;7.216;2023-08-30T00:38:58;4.40;;;2.03;;
82742;SDS011;72483;50.656;7.216;2023-08-30T00:41:25;3.92;;;1.95;;
82742;SDS011;72483;50.656;7.216;2023-08-30T00:43:51;4.45;;;1.95;;
82742;SDS011;72483;50.656;7.216;2023-08-30T00:46:18;4.55;;;2.05;;
82742;SDS011;72483;50.656;7.216;2023-08-30T00:48:44;3.97;;;2.15;;
82742;SDS011;72483;50.656;7.216;2023-08-30T00:51:12;4.03;;;1.92;;
82742;SDS011;72483;50.656;7.216;2023-08-30T00:53:39;4.50;;;2.05;;
82742;SDS011;72483;50.656;7.216;2023-08-30T00:56:06;4.38;;;2.05;;
82742;SDS011;72483;50.656;7.216;2023-08-30T00:58:32;4.55;;;2.15;;
82742;SDS011;72483;50.656;7.216;2023-08-30T01:00:59;4.82;;;2.08;;
82742;SDS011;72483;50.656;7.216;2023-08-30T01:03:26;4.60;;;2.00;;
82742;SDS011;72483;50.656;7.216;2023-08-30T01:05:52;4.47;;;2.35;;
82742;SDS011;72483;50.656;7.216;2023-08-30T01:08:20;4.55;;;2.20;;
82742;SDS011;72483;50.656;7.216;2023-08-30T01:10:50;4.13;;;1.90;;
82742;SDS011;72483;50.656;7.216;2023-08-30T01:13:25;4.30;;;2.22;;
82742;SDS011;72483;50.656;7.216;2023-08-30T01:15:55;4.32;;;2.03;;
82742;SDS011;72483;50.656;7.216;2023-08-30T01:18:24;4.45;;;2.03;;
82742;SDS011;72483;50.656;7.216;2023-08-30T01:20:53;4.40;;;1.85;;
82742;SDS011;72483;50.656;7.216;2023-08-30T01:23:25;4.75;;;2.00;;
82742;SDS011;72483;50.656;7.216;2023-08-30T01:26:03;4.65;;;2.17;;
82742;SDS011;72483;50.656;7.216;2023-08-30T01:28:36;3.83;;;1.88;;
82742;SDS011;72483;50.656;7.216;2023-08-30T01:31:04;4.60;;;1.85;;
82742;SDS011;72483;50.656;7.216;2023-08-30T01:33:32;4.15;;;2.10;;
82742;SDS011;72483;50.656;7.216;2023-08-30T01:36:01;4.32;;;2.20;;
82742;SDS011;72483;50.656;7.216;2023-08-30T01:38:29;5.10;;;2.30;;
82742;SDS011;72483;50.656;7.216;2023-08-30T01:40:58;4.65;;;2.00;;
82742;SDS011;72483;50.656;7.216;2023-08-30T01:43:26;4.03;;;1.98;;
82742;SDS011;72483;50.656;7.216;2023-08-30T01:45:55;4.18;;;1.98;;
82742;SDS011;72483;50.656;7.216;2023-08-30T01:48:22;4.43;;;1.95;;
82742;SDS011;72483;50.656;7.216;2023-08-30T01:50:51;3.65;;;1.90;;
82742;SDS011;72483;50.656;7.216;2023-08-30T01:53:19;3.85;;;1.90;;
82742;SDS011;72483;50.656;7.216;2023-08-30T01:55:47;4.43;;;2.00;;
82742;SDS011;72483;50.656;7.216;2023-08-30T01:58:13;4.28;;;1.90;;
82742;SDS011;72483;50.656;7.216;2023-08-30T02:00:40;4.53;;;1.90;;
82742;SDS011;72483;50.656;7.216;2023-08-30T02:03:08;4.90;;;2.03;;
82742;SDS011;72483;50.656;7.216;2023-08-30T02:05:36;4.38;;;1.92;;
82742;SDS011;72483;50.656;7.216;2023-08-30T02:08:09;4.30;;;1.90;;
82742;SDS011;72483;50.656;7.216;2023-08-30T02:10:41;4.30;;;1.80;;
82742;SDS011;72483;50.656;7.216;2023-08-30T02:13:18;4.15;;;1.80;;
82742;SDS011;72483;50.656;7.216;2023-08-30T02:15:51;4.15;;;2.03;;
82742;SDS011;72483;50.656;7.216;2023-08-30T02:18:19;4.25;;;2.17;;
82742;SDS011;72483;50.656;7.216;2023-08-30T02:20:46;4.10;;;1.65;;
82742;SDS011;72483;50.656;7.216;2023-08-30T02:23:13;4.35;;;1.90;;
82742;SDS011;72483;50.656;7.216;2023-08-30T02:25:39;4.13;;;2.10;;
82742;SDS011;72483;50.656;7.216;2023-08-30T02:28:06;4.32;;;1.90;;
82742;SDS011;72483;50.656;7.216;2023-08-30T02:30:32;4.38;;;1.90;;
82742;SDS011;72483;50.656;7.216;2023-08-30T02:32:58;3.88;;;1.83;;
82742;SDS011;72483;50.656;7.216;2023-08-30T02:35:26;4.57;;;1.92;;
82742;SDS011;72483;50.656;7.216;2023-08-30T02:37:53;4.15;;;1.90;;
82742;SDS011;72483;50.656;7.216;2023-08-30T02:40:19;3.75;;;1.73;;
82742;SDS011;72483;50.656;7.216;2023-08-30T02:42:46;4.13;;;2.00;;
82742;SDS011;72483;50.656;7.216;2023-08-30T02:45:12;4.88;;;2.20;;
82742;SDS011;72483;50.656;7.216;2023-08-30T02:47:39;4.72;;;2.20;;
82742;SDS011;72483;50.656;7.216;2023-08-30T02:50:05;4.20;;;1.88;;
82742;SDS011;72483;50.656;7.216;2023-08-30T02:52:33;4.10;;;1.92;;
82742;SDS011;72483;50.656;7.216;2023-08-30T02:55:00;4.43;;;2.00;;
82742;SDS011;72483;50.656;7.216;2023-08-30T02:57:28;3.97;;;1.90;;
82742;SDS011;72483;50.656;7.216;2023-08-30T02:59:54;4.63;;;1.90;;
82742;SDS011;72483;50.656;7.216;2023-08-30T03:02:21;4.15;;;1.90;;
82742;SDS011;72483;50.656;7.216;2023-08-30T03:04:47;4.78;;;1.98;;
82742;SDS011;72483;50.656;7.216;2023-08-30T03:07:14;3.92;;;1.90;;
82742;SDS011;72483;50.656;7.216;2023-08-30T03:09:42;4.65;;;2.00;;
82742;SDS011;72483;50.656;7.216;2023-08-30T03:12:08;3.55;;;1.67;;
82742;SDS011;72483;50.656;7.216;2023-08-30T03:14:35;3.55;;;1.90;;
82742;SDS011;72483;50.656;7.216;2023-08-30T03:17:01;4.20;;;1.73;;
82742;SDS011;72483;50.656;7.216;2023-08-30T03:19:30;4.18;;;1.80;;
82742;SDS011;72483;50.656;7.216;2023-08-30T03:21:57;4.50;;;2.03;;
82742;SDS011;72483;50.656;7.216;2023-08-30T03:24:25;3.88;;;1.95;;
82742;SDS011;72483;50.656;7.216;2023-08-30T03:26:53;4.13;;;2.03;;
82742;SDS011;72483;50.656;7.216;2023-08-30T03:29:19;4.53;;;1.85;;
82742;SDS011;72483;50.656;7.216;2023-08-30T03:31:47;3.60;;;1.65;;
82742;SDS011;72483;50.656;7.216;2023-08-30T03:34:13;3.92;;;1.77;;
82742;SDS011;72483;50.656;7.216;2023-08-30T03:36:40;4.22;;;1.83;;
82742;SDS011;72483;50.656;7.216;2023-08-30T03:39:09;3.95;;;1.85;;
82742;SDS011;72483;50.656;7.216;2023-08-30T03:41:35;4.07;;;2.00;;
82742;SDS011;72483;50.656;7.216;2023-08-30T03:44:03;3.35;;;1.55;;
82742;SDS011;72483;50.656;7.216;2023-08-30T03:46:30;4.30;;;1.90;;
82742;SDS011;72483;50.656;7.216;2023-08-30T03:48:56;4.38;;;1.80;;
82742;SDS011;72483;50.656;7.216;2023-08-30T03:51:23;4.57;;;1.95;;
82742;SDS011;72483;50.656;7.216;2023-08-30T03:53:49;3.58;;;1.60;;
82742;SDS011;72483;50.656;7.216;2023-08-30T03:56:16;4.90;;;1.90;;
82742;SDS011;72483;50.656;7.216;2023-08-30T03:58:42;3.67;;;1.70;;
82742;SDS011;72483;50.656;7.216;2023-08-30T04:01:10;4.10;;;1.90;;
82742;SDS011;72483;50.656;7.216;2023-08-30T04:03:36;4.15;;;1.80;;
82742;SDS011;72483;50.656;7.216;2023-08-30T04:06:03;3.63;;;1.80;;
82742;SDS011;72483;50.656;7.216;2023-08-30T04:08:30;3.85;;;1.88;;
82742;SDS011;72483;50.656;7.216;2023-08-30T04:10:56;4.05;;;1.90;;
82742;SDS011;72483;50.656;7.216;2023-08-30T04:13:23;4.18;;;1.80;;
82742;SDS011;72483;50.656;7.216;2023-08-30T04:15:49;3.38;;;1.70;;
82742;SDS011;72483;50.656;7.216;2023-08-30T04:18:18;3.90;;;1.73;;
82742;SDS011;72483;50.656;7.216;2023-08-30T04:20:45;3.42;;;1.73;;
82742;SDS011;72483;50.656;7.216;2023-08-30T04:23:12;4.53;;;1.98;;
82742;SDS011;72483;50.656;7.216;2023-08-30T04:25:40;3.63;;;2.05;;
82742;SDS011;72483;50.656;7.216;2023-08-30T04:28:07;3.92;;;1.95;;
82742;SDS011;72483;50.656;7.216;2023-08-30T04:30:35;4.30;;;1.77;;
82742;SDS011;72483;50.656;7.216;2023-08-30T04:33:02;4.10;;;1.90;;
82742;SDS011;72483;50.656;7.216;2023-08-30T04:35:30;3.70;;;1.70;;
82742;SDS011;72483;50.656;7.216;2023-08-30T04:37:57;4.25;;;1.98;;
82742;SDS011;72483;50.656;7.216;2023-08-30T04:40:24;3.60;;;1.80;;
82742;SDS011;72483;50.656;7.216;2023-08-30T04:42:50;3.80;;;1.75;;
82742;SDS011;72483;50.656;7.216;2023-08-30T04:45:19;3.70;;;1.73;;
82742;SDS011;72483;50.656;7.216;2023-08-30T04:47:45;4.15;;;1.80;;
82742;SDS011;72483;50.656;7.216;2023-08-30T04:50:13;3.53;;;1.60;;
82742;SDS011;72483;50.656;7.216;2023-08-30T04:52:40;3.88;;;1.83;;
82742;SDS011;72483;50.656;7.216;2023-08-30T04:55:07;3.60;;;1.70;;
82742;SDS011;72483;50.656;7.216;2023-08-30T04:57:35;3.80;;;1.80;;
82742;SDS011;72483;50.656;7.216;2023-08-30T05:00:01;3.78;;;1.60;;
82742;SDS011;72483;50.656;7.216;2023-08-30T05:02:30;3.33;;;1.60;;
82742;SDS011;72483;50.656;7.216;2023-08-30T05:04:58;4.53;;;2.00;;
82742;SDS011;72483;50.656;7.216;2023-08-30T05:07:24;4.30;;;1.90;;
82742;SDS011;72483;50.656;7.216;2023-08-30T05:09:52;3.63;;;1.60;;
82742;SDS011;72483;50.656;7.216;2023-08-30T05:12:19;4.28;;;1.92;;
82742;SDS011;72483;50.656;7.216;2023-08-30T05:14:45;4.03;;;2.00;;
82742;SDS011;72483;50.656;7.216;2023-08-30T05:17:12;4.38;;;2.00;;
82742;SDS011;72483;50.656;7.216;2023-08-30T05:19:38;3.47;;;1.67;;
82742;SDS011;72483;50.656;7.216;2023-08-30T05:22:05;4.47;;;1.85;;
82742;SDS011;72483;50.656;7.216;2023-08-30T05:24:31;3.70;;;1.70;;
82742;SDS011;72483;50.656;7.216;2023-08-30T05:27:00;3.63;;;1.70;;
82742;SDS011;72483;50.656;7.216;2023-08-30T05:29:26;3.25;;;1.75;;
82742;SDS011;72483;50.656;7.216;2023-08-30T05:31:53;4.30;;;1.98;;
82742;SDS011;72483;50.656;7.216;2023-08-30T05:34:19;4.10;;;1.80;;
82742;SDS011;72483;50.656;7.216;2023-08-30T05:36:46;3.20;;;1.60;;
82742;SDS011;72483;50.656;7.216;2023-08-30T05:39:12;3.03;;;1.50;;
82742;SDS011;72483;50.656;7.216;2023-08-30T05:41:39;3.53;;;1.58;;
82742;SDS011;72483;50.656;7.216;2023-08-30T05:44:07;3.85;;;1.70;;
82742;SDS011;72483;50.656;7.216;2023-08-30T05:46:34;3.97;;;1.60;;
82742;SDS011;72483;50.656;7.216;2023-08-30T05:49:00;3.58;;;1.63;;
82742;SDS011;72483;50.656;7.216;2023-08-30T05:51:28;3.60;;;1.70;;
82742;SDS011;72483;50.656;7.216;2023-08-30T05:53:54;3.25;;;1.58;;
82742;SDS011;72483;50.656;7.216;2023-08-30T05:56:21;3.65;;;1.70;;
82742;SDS011;72483;50.656;7.216;2023-08-30T05:58:47;3.33;;;1.60;;
82742;SDS011;72483;50.656;7.216;2023-08-30T06:01:17;3.92;;;1.95;;
82742;SDS011;72483;50.656;7.216;2023-08-30T06:03:44;4.30;;;1.60;;
82742;SDS011;72483;50.656;7.216;2023-08-30T06:06:11;4.38;;;1.90;;
82742;SDS011;72483;50.656;7.216;2023-08-30T06:08:38;3.88;;;2.05;;
82742;SDS011;72483;50.656;7.216;2023-08-30T06:11:04;4.22;;;1.90;;
82742;SDS011;72483;50.656;7.216;2023-08-30T06:13:31;3.05;;;1.60;;
82742;SDS011;72483;50.656;7.216;2023-08-30T06:15:58;4.18;;;1.67;;
82742;SDS011;72483;50.656;7.216;2023-08-30T06:18:26;3.75;;;1.70;;
82742;SDS011;72483;50.656;7.216;2023-08-30T06:20:52;4.05;;;1.70;;
82742;SDS011;72483;50.656;7.216;2023-08-30T06:23:19;3.75;;;1.80;;
82742;SDS011;72483;50.656;7.216;2023-08-30T06:25:52;4.47;;;1.70;;
82742;SDS011;72483;50.656;7.216;2023-08-30T06:28:19;3.80;;;1.58;;
82742;SDS011;72483;50.656;7.216;2023-08-30T06:30:46;4.05;;;1.65;;
82742;SDS011;72483;50.656;7.216;2023-08-30T06:33:12;3.53;;;1.67;;
82742;SDS011;72483;50.656;7.216;2023-08-30T06:35:40;3.50;;;1.83;;
82742;SDS011;72483;50.656;7.216;2023-08-30T06:38:07;4.50;;;1.80;;
82742;SDS011;72483;50.656;7.216;2023-08-30T06:40:34;3.45;;;1.70;;
82742;SDS011;72483;50.656;7.216;2023-08-30T06:43:01;3.55;;;1.80;;
82742;SDS011;72483;50.656;7.216;2023-08-30T06:45:28;3.70;;;1.70;;
82742;SDS011;72483;50.656;7.216;2023-08-30T06:47:54;3.70;;;1.80;;
82742;SDS011;72483;50.656;7.216;2023-08-30T06:50:21;4.22;;;1.80;;
82742;SDS011;72483;50.656;7.216;2023-08-30T06:52:49;4.00;;;1.60;;
82742;SDS011;72483;50.656;7.216;2023-08-30T06:55:15;4.30;;;2.00;;
82742;SDS011;72483;50.656;7.216;2023-08-30T06:57:47;3.78;;;1.83;;
82742;SDS011;72483;50.656;7.216;2023-08-30T07:00:14;5.10;;;1.67;;
82742;SDS011;72483;50.656;7.216;2023-08-30T07:02:41;4.65;;;1.70;;
82742;SDS011;72483;50.656;7.216;2023-08-30T07:05:10;4.65;;;1.88;;
82742;SDS011;72483;50.656;7.216;2023-08-30T07:07:36;4.05;;;1.98;;
82742;SDS011;72483;50.656;7.216;2023-08-30T07:10:04;4.05;;;1.90;;
82742;SDS011;72483;50.656;7.216;2023-08-30T07:12:32;4.35;;;1.77;;
82742;SDS011;72483;50.656;7.216;2023-08-30T07:14:58;4.05;;;1.90;;
82742;SDS011;72483;50.656;7.216;2023-08-30T07:17:25;4.00;;;1.70;;
82742;SDS011;72483;50.656;7.216;2023-08-30T07:19:51;3.35;;;1.70;;
82742;SDS011;72483;50.656;7.216;2023-08-30T07:22:18;4.10;;;1.75;;
82742;SDS011;72483;50.656;7.216;2023-08-30T07:24:45;3.20;;;1.60;;
82742;SDS011;72483;50.656;7.216;2023-08-30T07:27:13;3.95;;;1.83;;
82742;SDS011;72483;50.656;7.216;2023-08-30T07:29:40;4.35;;;1.85;;
82742;SDS011;72483;50.656;7.216;2023-08-30T07:32:06;5.60;;;1.90;;
82742;SDS011;72483;50.656;7.216;2023-08-30T07:34:33;3.63;;;1.70;;
82742;SDS011;72483;50.656;7.216;2023-08-30T07:36:59;4.00;;;1.88;;
82742;SDS011;72483;50.656;7.216;2023-08-30T07:39:26;4.10;;;1.90;;
82742;SDS011;72483;50.656;7.216;2023-08-30T07:41:52;3.65;;;1.77;;
82742;SDS011;72483;50.656;7.216;2023-08-30T07:44:20;4.47;;;1.83;;
82742;SDS011;72483;50.656;7.216;2023-08-30T07:46:47;4.40;;;1.90;;
82742;SDS011;72483;50.656;7.216;2023-08-30T07:49:13;3.58;;;1.75;;
82742;SDS011;72483;50.656;7.216;2023-08-30T07:51:40;3.95;;;1.80;;
82742;SDS011;72483;50.656;7.216;2023-08-30T07:54:06;4.65;;;1.98;;
82742;SDS011;72483;50.656;7.216;2023-08-30T07:56:33;4.13;;;1.50;;
82742;SDS011;72483;50.656;7.216;2023-08-30T07:58:59;4.22;;;1.83;;
82742;SDS011;72483;50.656;7.216;2023-08-30T08:01:27;3.45;;;1.55;;
82742;SDS011;72483;50.656;7.216;2023-08-30T08:03:54;4.20;;;1.92;;
82742;SDS011;72483;50.656;7.216;2023-08-30T08:06:20;3.90;;;1.80;;
82742;SDS011;72483;50.656;7.216;2023-08-30T08:08:47;3.47;;;1.73;;
82742;SDS011;72483;50.656;7.216;2023-08-30T08:11:13;4.03;;;1.70;;
82742;SDS011;72483;50.656;7.216;2023-08-30T08:13:40;3.78;;;1.77;;
82742;SDS011;72483;50.656;7.216;2023-08-30T08:16:07;3.92;;;1.80;;
82742;SDS011;72483;50.656;7.216;2023-08-30T08:18:35;3.83;;;1.70;;
82742;SDS011;72483;50.656;7.216;2023-08-30T08:21:01;3.85;;;1.83;;
82742;SDS011;72483;50.656;7.216;2023-08-30T08:23:29;4.13;;;1.80;;
82742;SDS011;72483;50.656;7.216;2023-08-30T08:25:59;4.40;;;1.80;;
82742;SDS011;72483;50.656;7.216;2023-08-30T08:28:26;3.15;;;1.63;;
82742;SDS011;72483;50.656;7.216;2023-08-30T08:30:52;4.28;;;1.75;;
82742;SDS011;72483;50.656;7.216;2023-08-30T08:33:19;3.47;;;1.67;;
82742;SDS011;72483;50.656;7.216;2023-08-30T08:35:49;4.00;;;1.80;;
82742;SDS011;72483;50.656;7.216;2023-08-30T08:38:16;3.72;;;1.70;;
82742;SDS011;72483;50.656;7.216;2023-08-30T08:40:42;4.00;;;1.88;;
82742;SDS011;72483;50.656;7.216;2023-08-30T08:43:09;4.57;;;1.83;;
82742;SDS011;72483;50.656;7.216;2023-08-30T08:45:37;3.88;;;1.92;;
82742;SDS011;72483;50.656;7.216;2023-08-30T08:48:04;5.13;;;1.92;;
82742;SDS011;72483;50.656;7.216;2023-08-30T08:50:32;3.17;;;1.70;;
82742;SDS011;72483;50.656;7.216;2023-08-30T08:53:01;3.63;;;1.67;;
82742;SDS011;72483;50.656;7.216;2023-08-30T08:55:28;4.10;;;1.60;;
82742;SDS011;72483;50.656;7.216;2023-08-30T08:57:56;3.17;;;1.45;;
82742;SDS011;72483;50.656;7.216;2023-08-30T09:00:23;3.88;;;1.60;;
82742;SDS011;72483;50.656;7.216;2023-08-30T09:02:50;4.38;;;1.52;;
82742;SDS011;72483;50.656;7.216;2023-08-30T09:05:18;4.40;;;1.60;;
82742;SDS011;72483;50.656;7.216;2023-08-30T09:07:45;4.10;;;1.70;;
82742;SDS011;72483;50.656;7.216;2023-08-30T09:10:14;3.67;;;1.50;;
82742;SDS011;72483;50.656;7.216;2023-08-30T09:12:41;3.65;;;1.60;;
82742;SDS011;72483;50.656;7.216;2023-08-30T09:15:08;3.63;;;1.70;;
82742;SDS011;72483;50.656;7.216;2023-08-30T09:17:35;3.47;;;1.75;;
82742;SDS011;72483;50.656;7.216;2023-08-30T09:20:05;3.65;;;1.65;;
82742;SDS011;72483;50.656;7.216;2023-08-30T09:22:36;4.40;;;1.60;;
82742;SDS011;72483;50.656;7.216;2023-08-30T09:25:04;4.07;;;1.60;;
82742;SDS011;72483;50.656;7.216;2023-08-30T09:27:33;3.25;;;1.75;;
82742;SDS011;72483;50.656;7.216;2023-08-30T09:30:00;4.22;;;1.70;;
82742;SDS011;72483;50.656;7.216;2023-08-30T09:32:27;4.00;;;1.75;;
82742;SDS011;72483;50.656;7.216;2023-08-30T09:34:53;4.40;;;1.80;;
82742;SDS011;72483;50.656;7.216;2023-08-30T09:37:20;2.97;;;1.35;;
82742;SDS011;72483;50.656;7.216;2023-08-30T09:39:50;3.42;;;1.52;;
82742;SDS011;72483;50.656;7.216;2023-08-30T09:42:17;3.75;;;1.65;;
82742;SDS011;72483;50.656;7.216;2023-08-30T09:44:46;4.43;;;1.60;;
82742;SDS011;72483;50.656;7.216;2023-08-30T09:47:12;4.07;;;1.77;;
82742;SDS011;72483;50.656;7.216;2023-08-30T09:49:42;4.43;;;1.70;;
82742;SDS011;72483;50.656;7.216;2023-08-30T09:54:40;3.55;;;1.50;;
82742;SDS011;72483;50.656;7.216;2023-08-30T09:57:08;4.28;;;1.60;;
82742;SDS011;72483;50.656;7.216;2023-08-30T09:59:35;6.20;;;2.33;;
82742;SDS011;72483;50.656;7.216;2023-08-30T10:02:05;3.03;;;1.45;;
82742;SDS011;72483;50.656;7.216;2023-08-30T10:04:31;4.25;;;1.73;;
82742;SDS011;72483;50.656;7.216;2023-08-30T10:06:58;3.92;;;1.60;;
82742;SDS011;72483;50.656;7.216;2023-08-30T10:09:29;3.92;;;1.63;;
82742;SDS011;72483;50.656;7.216;2023-08-30T10:11:56;2.90;;;1.55;;
82742;SDS011;72483;50.656;7.216;2023-08-30T10:14:24;3.42;;;1.63;;
82742;SDS011;72483;50.656;7.216;2023-08-30T10:16:56;3.75;;;1.60;;
82742;SDS011;72483;50.656;7.216;2023-08-30T10:19:28;5.38;;;1.80;;
82742;SDS011;72483;50.656;7.216;2023-08-30T10:21:57;3.33;;;1.52;;
82742;SDS011;72483;50.656;7.216;2023-08-30T10:24:27;2.85;;;1.50;;
82742;SDS011;72483;50.656;7.216;2023-08-30T10:26:55;3.70;;;1.55;;
82742;SDS011;72483;50.656;7.216;2023-08-30T10:29:23;3.20;;;1.48;;
82742;SDS011;72483;50.656;7.216;2023-08-30T10:31:52;4.38;;;1.42;;
82742;SDS011;72483;50.656;7.216;2023-08-30T10:34:18;3.17;;;1.40;;
82742;SDS011;72483;50.656;7.216;2023-08-30T10:36:58;3.53;;;1.50;;
82742;SDS011;72483;50.656;7.216;2023-08-30T10:39:32;3.47;;;1.48;;
82742;SDS011;72483;50.656;7.216;2023-08-30T10:41:59;3.42;;;1.60;;
82742;SDS011;72483;50.656;7.216;2023-08-30T10:44:26;2.97;;;1.40;;
82742;SDS011;72483;50.656;7.216;2023-08-30T10:46:52;3.60;;;1.50;;
82742;SDS011;72483;50.656;7.216;2023-08-30T10:49:20;3.78;;;1.60;;
82742;SDS011;72483;50.656;7.216;2023-08-30T10:51:54;3.40;;;1.60;;
82742;SDS011;72483;50.656;7.216;2023-08-30T10:54:22;3.63;;;1.50;;
82742;SDS011;72483;50.656;7.216;2023-08-30T10:56:54;3.10;;;1.48;;
82742;SDS011;72483;50.656;7.216;2023-08-30T10:59:22;3.88;;;1.80;;
82742;SDS011;72483;50.656;7.216;2023-08-30T11:01:50;3.55;;;1.70;;
82742;SDS011;72483;50.656;7.216;2023-08-30T11:04:17;3.67;;;1.50;;
82742;SDS011;72483;50.656;7.216;2023-08-30T11:06:47;3.00;;;1.50;;
82742;SDS011;72483;50.656;7.216;2023-08-30T11:09:15;3.85;;;1.65;;
82742;SDS011;72483;50.656;7.216;2023-08-30T11:11:45;4.82;;;1.65;;
82742;SDS011;72483;50.656;7.216;2023-08-30T11:14:12;3.75;;;1.60;;
82742;SDS011;72483;50.656;7.216;2023-08-30T11:16:39;3.53;;;1.33;;
82742;SDS011;72483;50.656;7.216;2023-08-30T11:19:06;3.17;;;1.45;;
82742;SDS011;72483;50.656;7.216;2023-08-30T11:21:34;3.15;;;1.50;;
82742;SDS011;72483;50.656;7.216;2023-08-30T11:24:03;3.63;;;1.50;;
82742;SDS011;72483;50.656;7.216;2023-08-30T11:26:30;2.60;;;1.30;;
82742;SDS011;72483;50.656;7.216;2023-08-30T11:28:58;3.85;;;1.50;;
82742;SDS011;72483;50.656;7.216;2023-08-30T11:31:30;2.88;;;1.42;;
82742;SDS011;72483;50.656;7.216;2023-08-30T11:33:57;3.95;;;1.60;;
82742;SDS011;72483;50.656;7.216;2023-08-30T11:36:25;3.80;;;1.60;;
82742;SDS011;72483;50.656;7.216;2023-08-30T11:38:54;3.28;;;1.40;;
82742;SDS011;72483;50.656;7.216;2023-08-30T11:41:20;3.55;;;1.33;;
82742;SDS011;72483;50.656;7.216;2023-08-30T11:43:47;3.28;;;1.65;;
82742;SDS011;72483;50.656;7.216;2023-08-30T11:46:16;3.97;;;1.50;;
82742;SDS011;72483;50.656;7.216;2023-08-30T11:48:42;3.53;;;1.70;;
82742;SDS011;72483;50.656;7.216;2023-08-30T11:51:10;3.42;;;1.30;;
82742;SDS011;72483;50.656;7.216;2023-08-30T11:53:37;3.40;;;1.60;;
82742;SDS011;72483;50.656;7.216;2023-08-30T11:56:04;3.25;;;1.40;;
82742;SDS011;72483;50.656;7.216;2023-08-30T11:58:32;2.85;;;1.30;;
82742;SDS011;72483;50.656;7.216;2023-08-30T12:00:59;2.95;;;1.45;;
82742;SDS011;72483;50.656;7.216;2023-08-30T12:03:28;3.10;;;1.38;;
82742;SDS011;72483;50.656;7.216;2023-08-30T12:05:55;3.90;;;1.70;;
82742;SDS011;72483;50.656;7.216;2023-08-30T12:08:23;3.72;;;1.45;;
82742;SDS011;72483;50.656;7.216;2023-08-30T12:10:51;2.92;;;1.30;;
82742;SDS011;72483;50.656;7.216;2023-08-30T12:13:21;3.80;;;1.33;;
82742;SDS011;72483;50.656;7.216;2023-08-30T12:15:48;2.75;;;1.30;;
82742;SDS011;72483;50.656;7.216;2023-08-30T12:18:15;3.38;;;1.50;;
82742;SDS011;72483;50.656;7.216;2023-08-30T12:20:52;3.00;;;1.50;;
82742;SDS011;72483;50.656;7.216;2023-08-30T12:23:19;3.50;;;1.50;;
82742;SDS011;72483;50.656;7.216;2023-08-30T12:25:56;4.40;;;1.60;;
82742;SDS011;72483;50.656;7.216;2023-08-30T12:28:23;3.17;;;1.50;;
82742;SDS011;72483;50.656;7.216;2023-08-30T12:30:50;2.92;;;1.52;;
82742;SDS011;72483;50.656;7.216;2023-08-30T12:33:16;3.85;;;1.60;;
82742;SDS011;72483;50.656;7.216;2023-08-30T12:35:43;3.00;;;1.40;;
82742;SDS011;72483;50.656;7.216;2023-08-30T12:38:11;2.72;;;1.40;;
82742;SDS011;72483;50.656;7.216;2023-08-30T12:40:42;3.22;;;1.25;;
82742;SDS011;72483;50.656;7.216;2023-08-30T12:43:09;3.10;;;1.50;;
82742;SDS011;72483;50.656;7.216;2023-08-30T12:45:36;2.85;;;1.30;;
82742;SDS011;72483;50.656;7.216;2023-08-30T12:48:02;4.68;;;1.42;;
82742;SDS011;72483;50.656;7.216;2023-08-30T12:50:29;3.70;;;1.42;;
82742;SDS011;72483;50.656;7.216;2023-08-30T12:52:56;3.83;;;1.50;;
82742;SDS011;72483;50.656;7.216;2023-08-30T12:55:24;3.70;;;1.58;;
82742;SDS011;72483;50.656;7.216;2023-08-30T12:57:51;3.60;;;1.40;;
82742;SDS011;72483;50.656;7.216;2023-08-30T13:00:18;2.80;;;1.40;;
82742;SDS011;72483;50.656;7.216;2023-08-30T13:02:45;2.53;;;1.20;;
82742;SDS011;72483;50.656;7.216;2023-08-30T13:05:11;3.35;;;1.40;;
82742;SDS011;72483;50.656;7.216;2023-08-30T13:07:38;3.28;;;1.33;;
82742;SDS011;72483;50.656;7.216;2023-08-30T13:10:05;3.70;;;1.50;;
82742;SDS011;72483;50.656;7.216;2023-08-30T13:12:34;2.83;;;1.30;;
82742;SDS011;72483;50.656;7.216;2023-08-30T13:15:01;2.75;;;1.35;;
82742;SDS011;72483;50.656;7.216;2023-08-30T13:17:27;4.22;;;1.50;;
82742;SDS011;72483;50.656;7.216;2023-08-30T13:19:54;2.53;;;1.20;;
82742;SDS011;72483;50.656;7.216;2023-08-30T13:22:22;3.20;;;1.52;;
82742;SDS011;72483;50.656;7.216;2023-08-30T13:24:48;2.95;;;1.35;;
82742;SDS011;72483;50.656;7.216;2023-08-30T13:27:15;2.67;;;1.20;;
82742;SDS011;72483;50.656;7.216;2023-08-30T13:29:42;3.58;;;1.30;;
82742;SDS011;72483;50.656;7.216;2023-08-30T13:32:09;3.88;;;1.33;;
82742;SDS011;72483;50.656;7.216;2023-08-30T13:34:36;3.70;;;1.45;;
82742;SDS011;72483;50.656;7.216;2023-08-30T13:37:03;4.22;;;1.55;;
82742;SDS011;72483;50.656;7.216;2023-08-30T13:39:30;3.22;;;1.23;;
82742;SDS011;72483;50.656;7.216;2023-08-30T13:41:57;3.78;;;1.45;;
82742;SDS011;72483;50.656;7.216;2023-08-30T13:44:24;2.85;;;1.20;;
82742;SDS011;72483;50.656;7.216;2023-08-30T13:46:51;2.88;;;1.30;;
82742;SDS011;72483;50.656;7.216;2023-08-30T13:49:18;3.22;;;1.20;;
82742;SDS011;72483;50.656;7.216;2023-08-30T13:51:45;2.78;;;1.33;;
82742;SDS011;72483;50.656;7.216;2023-08-30T13:54:12;2.72;;;1.30;;
82742;SDS011;72483;50.656;7.216;2023-08-30T13:56:38;2.70;;;1.30;;
82742;SDS011;72483;50.656;7.216;2023-08-30T13:59:06;2.83;;;1.35;;
82742;SDS011;72483;50.656;7.216;2023-08-30T14:01:32;3.03;;;1.27;;
82742;SDS011;72483;50.656;7.216;2023-08-30T14:04:01;3.15;;;1.25;;
82742;SDS011;72483;50.656;7.216;2023-08-30T14:06:29;3.63;;;1.35;;
82742;SDS011;72483;50.656;7.216;2023-08-30T14:08:56;3.08;;;1.25;;
82742;SDS011;72483;50.656;7.216;2023-08-30T14:11:23;3.25;;;1.30;;
82742;SDS011;72483;50.656;7.216;2023-08-30T14:13:49;3.05;;;1.23;;
82742;SDS011;72483;50.656;7.216;2023-08-30T14:16:16;3.53;;;1.40;;
82742;SDS011;72483;50.656;7.216;2023-08-30T14:18:43;2.75;;;1.30;;
82742;SDS011;72483;50.656;7.216;2023-08-30T14:21:11;3.08;;;1.45;;
82742;SDS011;72483;50.656;7.216;2023-08-30T14:23:38;3.05;;;1.40;;
82742;SDS011;72483;50.656;7.216;2023-08-30T14:26:05;3.22;;;1.40;;
82742;SDS011;72483;50.656;7.216;2023-08-30T14:28:35;4.10;;;1.50;;
82742;SDS011;72483;50.656;7.216;2023-08-30T14:31:02;3.22;;;1.50;;
82742;SDS011;72483;50.656;7.216;2023-08-30T14:33:29;2.95;;;1.30;;
82742;SDS011;72483;50.656;7.216;2023-08-30T14:35:56;3.00;;;1.30;;
82742;SDS011;72483;50.656;7.216;2023-08-30T14:38:24;2.80;;;1.20;;
82742;SDS011;72483;50.656;7.216;2023-08-30T14:40:54;2.35;;;1.20;;
82742;SDS011;72483;50.656;7.216;2023-08-30T14:43:21;2.70;;;1.15;;
82742;SDS011;72483;50.656;7.216;2023-08-30T14:45:48;2.35;;;1.20;;
82742;SDS011;72483;50.656;7.216;2023-08-30T14:48:15;3.22;;;1.23;;
82742;SDS011;72483;50.656;7.216;2023-08-30T14:50:41;3.47;;;1.30;;
82742;SDS011;72483;50.656;7.216;2023-08-30T14:53:08;2.92;;;1.40;;